createdAt,value
2023-02-07T00:00:03.234Z,21.77
2023-02-07T00:05:17.467Z,21.73
2023-02-07T00:10:20.251Z,21.65
2023-02-07T00:15:23.059Z,21.60
2023-02-07T00:20:27.182Z,21.53
2023-02-07T00:25:29.938Z,21.48
2023-02-07T00:30:32.773Z,21.43
2023-02-07T00:35:37.295Z,21.38
2023-02-07T00:40:41.054Z,21.34
2023-02-07T00:45:43.845Z,21.29
2023-02-07T00:50:48.073Z,21.23
2023-02-07T00:55:52.280Z,21.17
2023-02-07T01:00:55.096Z,21.10
2023-02-07T01:05:59.324Z,21.03
2023-02-07T01:11:04.159Z,20.94
2023-02-07T01:16:07.431Z,20.86
2023-02-07T01:21:17.109Z,20.75
2023-02-07T01:26:19.922Z,20.68
2023-02-07T01:31:24.032Z,20.64
2023-02-07T01:36:30.031Z,20.59
2023-02-07T01:41:32.849Z,20.54
2023-02-07T01:46:37.045Z,20.52
2023-02-07T01:51:46.349Z,20.48
2023-02-07T01:56:54.862Z,20.45
2023-02-07T02:01:58.948Z,20.42
2023-02-07T02:07:04.975Z,20.38
2023-02-07T02:12:47.202Z,20.32
2023-02-07T02:18:03.826Z,20.29
2023-02-07T02:23:19.625Z,20.25
2023-02-07T02:28:46.535Z,20.19
2023-02-07T02:33:58.725Z,20.16
2023-02-07T02:39:09.250Z,20.14
2023-02-07T02:44:18.077Z,20.10
2023-02-07T02:49:23.984Z,20.07
2023-02-07T02:54:31.966Z,20.01
2023-02-07T02:59:52.337Z,19.98
2023-02-07T03:05:13.923Z,19.94
2023-02-07T03:10:29.657Z,19.92
2023-02-07T03:15:39.260Z,19.89
2023-02-07T03:20:49.210Z,19.85
2023-02-07T03:25:53.728Z,19.83
2023-02-07T03:31:02.641Z,19.79
2023-02-07T03:36:15.355Z,19.77
2023-02-07T03:41:25.572Z,19.76
2023-02-07T03:46:35.636Z,19.73
2023-02-07T03:51:39.796Z,19.71
2023-02-07T03:56:42.876Z,19.70
2023-02-07T04:01:45.692Z,19.67
2023-02-07T04:06:49.913Z,19.66
2023-02-07T04:11:53.426Z,19.64
2023-02-07T04:16:56.315Z,19.62
2023-02-07T04:22:00.435Z,19.62
2023-02-07T04:27:03.274Z,19.58
2023-02-07T04:32:06.436Z,19.54
2023-02-07T04:37:10.606Z,19.50
2023-02-07T04:42:13.579Z,19.48
2023-02-07T04:47:16.383Z,19.47
2023-02-07T04:52:20.493Z,19.44
2023-02-07T04:57:23.289Z,19.41
2023-02-07T05:02:26.212Z,19.40
2023-02-07T05:07:30.521Z,19.36
2023-02-07T05:12:33.434Z,19.35
2023-02-07T05:17:38.497Z,19.34
2023-02-07T05:22:42.861Z,19.32
2023-02-07T05:27:45.759Z,19.29
2023-02-07T05:33:05.999Z,19.28
2023-02-07T05:38:12.929Z,19.25
2023-02-07T05:43:15.859Z,19.25
2023-02-07T05:48:18.746Z,19.24
2023-02-07T05:53:23.060Z,19.22
2023-02-07T05:58:25.824Z,19.20
2023-02-07T06:03:28.622Z,19.19
2023-02-07T06:08:32.803Z,19.16
2023-02-07T06:13:35.710Z,19.17
2023-02-07T06:18:38.806Z,19.15
2023-02-07T06:23:42.948Z,19.13
2023-02-07T06:28:45.859Z,19.12
2023-02-07T06:33:48.607Z,19.11
2023-02-07T06:38:55.399Z,19.10
2023-02-07T06:43:58.290Z,19.07
2023-02-07T06:49:01.081Z,19.07
2023-02-07T06:54:09.566Z,19.05
2023-02-07T06:59:12.415Z,19.03
2023-02-07T07:04:15.616Z,19.02
2023-02-07T07:09:19.900Z,19.01
2023-02-07T07:14:23.048Z,19.00
2023-02-07T07:19:25.869Z,18.97
2023-02-07T07:24:30.021Z,18.98
2023-02-07T07:29:32.849Z,18.98
2023-02-07T07:34:35.792Z,18.96
2023-02-07T07:39:40.018Z,18.95
2023-02-07T07:44:42.916Z,18.94
2023-02-07T07:49:45.740Z,18.93
2023-02-07T07:54:49.853Z,18.92
2023-02-07T07:59:52.674Z,18.89
2023-02-07T08:04:55.666Z,10.75
2023-02-07T08:09:59.848Z,11.03
2023-02-07T08:15:02.828Z,15.31
2023-02-07T08:20:07.514Z,16.51
2023-02-07T08:25:11.776Z,17.11
2023-02-07T08:30:15.958Z,17.54
2023-02-07T08:35:19.165Z,17.86
2023-02-07T08:40:23.367Z,18.11
2023-02-07T08:45:26.494Z,18.32
2023-02-07T08:50:29.257Z,18.46
2023-02-07T08:55:33.423Z,18.56
2023-02-07T09:00:36.297Z,18.64
2023-02-07T09:05:39.201Z,18.68
2023-02-07T09:10:45.400Z,18.72
2023-02-07T09:15:55.476Z,18.74
2023-02-07T09:20:58.310Z,18.74
2023-02-07T09:26:04.679Z,18.76
2023-02-07T09:31:11.708Z,18.77
2023-02-07T09:36:21.032Z,18.91
2023-02-07T09:41:31.398Z,19.13
2023-02-07T09:46:38.126Z,19.26
2023-02-07T09:51:41.883Z,19.37
2023-02-07T09:56:47.395Z,19.47
2023-02-07T10:01:54.646Z,19.57
2023-02-07T10:07:00.180Z,19.66
2023-02-07T10:12:17.392Z,19.75
2023-02-07T10:17:32.430Z,19.83
2023-02-07T10:22:45.787Z,19.87
2023-02-07T10:28:04.349Z,19.93
2023-02-07T10:33:15.831Z,19.99
2023-02-07T10:38:24.983Z,20.03
2023-02-07T10:43:32.569Z,20.08
2023-02-07T10:48:36.833Z,20.13
2023-02-07T10:53:54.957Z,20.18
2023-02-07T10:59:00.842Z,20.21
2023-02-07T11:04:22.723Z,20.25
2023-02-07T11:09:26.388Z,20.29
2023-02-07T11:14:31.038Z,20.32
2023-02-07T11:19:33.927Z,20.37
2023-02-07T11:24:38.598Z,20.39
2023-02-07T11:29:49.593Z,20.42
2023-02-07T11:34:55.302Z,20.44
2023-02-07T11:40:21.170Z,20.48
2023-02-07T11:45:25.805Z,20.50
2023-02-07T11:50:31.250Z,20.52
2023-02-07T11:55:36.942Z,20.54
2023-02-07T12:00:42.452Z,20.55
2023-02-07T12:05:51.783Z,20.56
2023-02-07T12:10:59.032Z,20.59
2023-02-07T12:16:08.030Z,20.60
2023-02-07T12:21:19.657Z,20.62
2023-02-07T12:26:25.638Z,20.64
2023-02-07T12:31:38.644Z,20.64
2023-02-07T12:36:47.445Z,20.66
2023-02-07T12:41:57.196Z,20.68
2023-02-07T12:47:08.562Z,20.69
2023-02-07T12:52:27.204Z,20.70
2023-02-07T12:57:38.853Z,20.72
2023-02-07T13:02:56.523Z,20.75
2023-02-07T13:08:11.161Z,20.77
2023-02-07T13:13:23.336Z,20.78
2023-02-07T13:18:35.403Z,20.79
2023-02-07T13:23:42.706Z,20.81
2023-02-07T13:28:51.094Z,20.81
2023-02-07T13:33:55.549Z,20.82
2023-02-07T13:39:08.967Z,18.11
2023-02-07T13:44:23.514Z,12.30
2023-02-07T13:49:41.718Z,13.42
2023-02-07T13:54:57.076Z,17.22
2023-02-07T14:00:15.445Z,18.27
2023-02-07T14:05:26.318Z,18.74
2023-02-07T14:10:39.842Z,19.05
2023-02-07T14:16:11.257Z,19.33
2023-02-07T14:21:45.835Z,19.56
2023-02-07T14:27:06.380Z,19.72
2023-02-07T14:32:28.582Z,19.89
2023-02-07T14:37:49.324Z,19.98
2023-02-07T14:43:02.438Z,20.02
2023-02-07T14:48:07.657Z,20.08
2023-02-07T14:53:15.803Z,20.14
2023-02-07T14:58:27.482Z,20.17
2023-02-07T15:03:34.835Z,20.20
2023-02-07T15:08:39.116Z,20.24
2023-02-07T15:13:45.256Z,20.26
2023-02-07T15:18:52.772Z,20.27
2023-02-07T15:24:01.581Z,20.26
2023-02-07T15:29:07.305Z,20.26
2023-02-07T15:34:17.427Z,20.27
2023-02-07T15:39:23.956Z,20.28
2023-02-07T15:44:28.303Z,20.27
2023-02-07T15:49:34.044Z,20.27
2023-02-07T15:54:45.962Z,20.27
2023-02-07T15:59:52.188Z,20.30
2023-02-07T16:04:55.158Z,20.33
2023-02-07T16:10:17.907Z,20.41
2023-02-07T16:15:27.948Z,20.53
2023-02-07T16:20:35.219Z,20.63
2023-02-07T16:25:39.440Z,20.73
2023-02-07T16:30:42.595Z,20.82
2023-02-07T16:35:45.723Z,20.90
2023-02-07T16:40:50.455Z,20.92
2023-02-07T16:45:54.512Z,20.91
2023-02-07T16:50:58.212Z,20.94
2023-02-07T16:56:03.929Z,20.99
2023-02-07T17:01:06.854Z,21.03
2023-02-07T17:06:14.093Z,21.02
2023-02-07T17:11:20.693Z,21.02
2023-02-07T17:16:25.461Z,21.00
2023-02-07T17:21:28.272Z,20.95
2023-02-07T17:26:32.960Z,20.94
2023-02-07T17:31:35.913Z,20.92
2023-02-07T17:36:40.085Z,20.90
2023-02-07T17:41:44.352Z,20.83
2023-02-07T17:46:47.170Z,20.80
2023-02-07T17:51:50.245Z,20.83
2023-02-07T17:56:55.705Z,20.81
2023-02-07T18:01:58.535Z,20.78
2023-02-07T18:07:01.369Z,20.77
2023-02-07T18:12:05.802Z,20.77
2023-02-07T18:17:08.646Z,20.77
2023-02-07T18:22:11.810Z,20.81
2023-02-07T18:27:17.338Z,20.86
2023-02-07T18:32:20.159Z,20.91
2023-02-07T18:37:23.003Z,20.95
2023-02-07T18:42:27.406Z,20.99
2023-02-07T18:47:32.194Z,21.00
2023-02-07T18:52:35.100Z,21.04
2023-02-07T18:57:39.286Z,21.06
2023-02-07T19:02:42.145Z,21.06
2023-02-07T19:07:45.000Z,21.08
2023-02-07T19:12:49.161Z,21.09
2023-02-07T19:17:51.909Z,21.12
2023-02-07T19:22:54.669Z,21.11
2023-02-07T19:27:58.856Z,21.10
2023-02-07T19:33:01.640Z,21.12
2023-02-07T19:38:04.792Z,21.12
2023-02-07T19:43:09.143Z,21.11
2023-02-07T19:48:11.945Z,21.13
2023-02-07T19:53:16.123Z,21.13
2023-02-07T19:58:20.249Z,21.16
2023-02-07T20:03:23.048Z,21.17
2023-02-07T20:08:26.144Z,21.19
2023-02-07T20:13:33.435Z,21.18
2023-02-07T20:18:36.559Z,21.17
2023-02-07T20:23:41.654Z,21.17
2023-02-07T20:28:46.715Z,21.21
2023-02-07T20:33:50.101Z,21.18
2023-02-07T20:38:53.309Z,21.19
2023-02-07T20:43:59.202Z,21.19
2023-02-07T20:49:04.880Z,21.13
2023-02-07T20:54:07.966Z,21.16
2023-02-07T20:59:17.556Z,21.19
2023-02-07T21:04:20.363Z,21.20
2023-02-07T21:09:23.359Z,21.19
2023-02-07T21:14:29.609Z,21.25
2023-02-07T21:19:32.475Z,21.28
2023-02-07T21:24:35.631Z,21.27
2023-02-07T21:29:39.899Z,21.30
2023-02-07T21:34:42.882Z,21.36
2023-02-07T21:39:45.617Z,21.34
2023-02-07T21:44:49.786Z,21.34
2023-02-07T21:49:52.518Z,21.35
2023-02-07T21:54:55.344Z,21.42
2023-02-07T21:59:59.548Z,21.41
2023-02-07T22:05:02.347Z,21.42
2023-02-07T22:10:05.420Z,21.39
2023-02-07T22:15:10.031Z,21.39
2023-02-07T22:20:13.096Z,21.41
2023-02-07T22:25:16.055Z,21.40
2023-02-07T22:30:20.352Z,21.39
2023-02-07T22:35:23.096Z,21.39
2023-02-07T22:40:25.858Z,21.38
2023-02-07T22:45:30.546Z,21.38
2023-02-07T22:50:33.718Z,21.34
2023-02-07T22:55:36.436Z,21.35
2023-02-07T23:00:41.577Z,21.35
2023-02-07T23:05:44.558Z,21.32
2023-02-07T23:10:47.308Z,21.32
2023-02-07T23:15:51.566Z,21.32
2023-02-07T23:20:54.482Z,21.32
2023-02-07T23:25:58.693Z,21.31
2023-02-07T23:31:02.846Z,21.29
2023-02-07T23:36:06.930Z,21.30
2023-02-07T23:41:10.230Z,21.30
2023-02-07T23:46:16.157Z,21.29
2023-02-07T23:51:19.040Z,21.25
2023-02-07T23:56:23.367Z,21.28
